Terminal Aerodrome Forecast
Issued by NWS

Home | Current Version | Previous Version | Graphics & Text | Print | Product List | Glossary On
Versions: 1 2 3 4 5 6 7 8 9 10 11 12 13 14 15 16 17 18
000
FTUS43 KBIS 271120
TAFDIK
TAF
KDIK 271120Z 2712/2812 15012KT P6SM VCTS SCT030CB BKN120
     FM271500 15015G25KT P6SM SCT035 SCT150
     FM272200 15018G25KT P6SM VCTS BKN050CB BKN150
     FM280000 15018G28KT 6SM TSRA OVC050CB
     FM280600 27018G30KT P6SM VCSH BKN035=

USA.gov is the U.S. government's official web portal to all federal, state and local government web resources and services.